sensor_id;sensor_type;location;lat;lon;timestamp;P1;durP1;ratioP1;P2;durP2;ratioP2
14760;SDS011;7472;45.396;5.272;2022-09-09T00:00:59;1.50;;;0.85;;
14760;SDS011;7472;45.396;5.272;2022-09-09T00:03:32;4.30;;;1.23;;
14760;SDS011;7472;45.396;5.272;2022-09-09T00:06:03;2.85;;;0.95;;
14760;SDS011;7472;45.396;5.272;2022-09-09T00:08:33;4.97;;;0.70;;
14760;SDS011;7472;45.396;5.272;2022-09-09T00:11:04;2.42;;;0.80;;
14760;SDS011;7472;45.396;5.272;2022-09-09T00:13:34;1.83;;;0.90;;
14760;SDS011;7472;45.396;5.272;2022-09-09T00:16:04;3.15;;;0.90;;
14760;SDS011;7472;45.396;5.272;2022-09-09T00:18:38;4.47;;;1.13;;
14760;SDS011;7472;45.396;5.272;2022-09-09T00:21:08;3.45;;;0.90;;
14760;SDS011;7472;45.396;5.272;2022-09-09T00:23:38;0.93;;;0.55;;
14760;SDS011;7472;45.396;5.272;2022-09-09T00:26:08;2.80;;;0.90;;
14760;SDS011;7472;45.396;5.272;2022-09-09T00:28:38;2.25;;;1.15;;
14760;SDS011;7472;45.396;5.272;2022-09-09T00:31:09;2.38;;;0.88;;
14760;SDS011;7472;45.396;5.272;2022-09-09T00:33:39;4.13;;;0.80;;
14760;SDS011;7472;45.396;5.272;2022-09-09T00:36:09;1.90;;;1.00;;
14760;SDS011;7472;45.396;5.272;2022-09-09T00:38:42;2.28;;;0.70;;
14760;SDS011;7472;45.396;5.272;2022-09-09T00:41:11;3.30;;;1.00;;
14760;SDS011;7472;45.396;5.272;2022-09-09T00:43:41;4.60;;;1.00;;
14760;SDS011;7472;45.396;5.272;2022-09-09T00:46:24;1.77;;;0.70;;
14760;SDS011;7472;45.396;5.272;2022-09-09T00:48:57;3.88;;;0.95;;
14760;SDS011;7472;45.396;5.272;2022-09-09T00:51:28;4.80;;;0.85;;
14760;SDS011;7472;45.396;5.272;2022-09-09T00:54:06;4.35;;;0.90;;
14760;SDS011;7472;45.396;5.272;2022-09-09T00:56:37;2.80;;;0.90;;
14760;SDS011;7472;45.396;5.272;2022-09-09T00:59:10;5.20;;;0.70;;
14760;SDS011;7472;45.396;5.272;2022-09-09T01:01:39;4.57;;;1.17;;
14760;SDS011;7472;45.396;5.272;2022-09-09T01:04:09;0.95;;;0.65;;
14760;SDS011;7472;45.396;5.272;2022-09-09T01:06:41;1.50;;;0.65;;
14760;SDS011;7472;45.396;5.272;2022-09-09T01:09:13;2.05;;;0.75;;
14760;SDS011;7472;45.396;5.272;2022-09-09T01:11:47;4.45;;;0.82;;
14760;SDS011;7472;45.396;5.272;2022-09-09T01:14:20;3.50;;;1.55;;
14760;SDS011;7472;45.396;5.272;2022-09-09T01:16:50;1.25;;;0.70;;
14760;SDS011;7472;45.396;5.272;2022-09-09T01:19:23;4.65;;;0.98;;
14760;SDS011;7472;45.396;5.272;2022-09-09T01:21:54;3.47;;;1.23;;
14760;SDS011;7472;45.396;5.272;2022-09-09T01:24:26;2.80;;;0.77;;
14760;SDS011;7472;45.396;5.272;2022-09-09T01:26:56;5.10;;;1.20;;
14760;SDS011;7472;45.396;5.272;2022-09-09T01:29:24;2.85;;;0.70;;
14760;SDS011;7472;45.396;5.272;2022-09-09T01:31:52;3.03;;;1.05;;
14760;SDS011;7472;45.396;5.272;2022-09-09T01:34:21;2.35;;;1.00;;
14760;SDS011;7472;45.396;5.272;2022-09-09T01:36:49;1.35;;;0.70;;
14760;SDS011;7472;45.396;5.272;2022-09-09T01:39:18;3.00;;;1.00;;
14760;SDS011;7472;45.396;5.272;2022-09-09T01:41:45;1.88;;;1.00;;
14760;SDS011;7472;45.396;5.272;2022-09-09T01:44:14;3.03;;;0.90;;
14760;SDS011;7472;45.396;5.272;2022-09-09T01:46:43;2.08;;;1.00;;
14760;SDS011;7472;45.396;5.272;2022-09-09T01:52:14;2.53;;;0.90;;
14760;SDS011;7472;45.396;5.272;2022-09-09T01:54:59;3.47;;;0.98;;
14760;SDS011;7472;45.396;5.272;2022-09-09T01:57:27;1.88;;;0.85;;
14760;SDS011;7472;45.396;5.272;2022-09-09T02:00:03;3.28;;;1.13;;
14760;SDS011;7472;45.396;5.272;2022-09-09T02:02:32;1.95;;;0.85;;
14760;SDS011;7472;45.396;5.272;2022-09-09T02:05:04;1.40;;;0.90;;
14760;SDS011;7472;45.396;5.272;2022-09-09T02:07:38;4.00;;;0.88;;
14760;SDS011;7472;45.396;5.272;2022-09-09T02:10:09;1.88;;;0.95;;
14760;SDS011;7472;45.396;5.272;2022-09-09T02:12:37;2.55;;;1.00;;
14760;SDS011;7472;45.396;5.272;2022-09-09T02:15:11;3.25;;;0.90;;
14760;SDS011;7472;45.396;5.272;2022-09-09T02:17:40;3.08;;;1.40;;
14760;SDS011;7472;45.396;5.272;2022-09-09T02:20:09;3.60;;;0.70;;
14760;SDS011;7472;45.396;5.272;2022-09-09T02:22:38;1.92;;;0.85;;
14760;SDS011;7472;45.396;5.272;2022-09-09T02:25:07;2.75;;;1.20;;
14760;SDS011;7472;45.396;5.272;2022-09-09T02:27:35;3.22;;;0.98;;
14760;SDS011;7472;45.396;5.272;2022-09-09T02:30:03;2.55;;;1.02;;
14760;SDS011;7472;45.396;5.272;2022-09-09T02:32:32;2.45;;;0.70;;
14760;SDS011;7472;45.396;5.272;2022-09-09T02:35:03;3.20;;;1.02;;
14760;SDS011;7472;45.396;5.272;2022-09-09T02:37:33;2.13;;;1.05;;
14760;SDS011;7472;45.396;5.272;2022-09-09T02:40:02;3.08;;;1.00;;
14760;SDS011;7472;45.396;5.272;2022-09-09T02:42:31;2.08;;;0.88;;
14760;SDS011;7472;45.396;5.272;2022-09-09T02:44:58;2.53;;;1.10;;
14760;SDS011;7472;45.396;5.272;2022-09-09T02:47:27;2.83;;;1.25;;
14760;SDS011;7472;45.396;5.272;2022-09-09T02:49:59;4.22;;;1.00;;
14760;SDS011;7472;45.396;5.272;2022-09-09T02:52:32;2.13;;;0.98;;
14760;SDS011;7472;45.396;5.272;2022-09-09T02:55:04;2.60;;;1.25;;
14760;SDS011;7472;45.396;5.272;2022-09-09T02:57:32;2.33;;;1.00;;
14760;SDS011;7472;45.396;5.272;2022-09-09T03:00:00;3.60;;;0.90;;
14760;SDS011;7472;45.396;5.272;2022-09-09T03:02:28;6.82;;;1.05;;
14760;SDS011;7472;45.396;5.272;2022-09-09T03:04:55;3.75;;;0.95;;
14760;SDS011;7472;45.396;5.272;2022-09-09T03:07:24;3.30;;;1.20;;
14760;SDS011;7472;45.396;5.272;2022-09-09T03:09:52;2.70;;;1.17;;
14760;SDS011;7472;45.396;5.272;2022-09-09T03:12:20;5.45;;;1.02;;
14760;SDS011;7472;45.396;5.272;2022-09-09T03:14:47;5.50;;;1.38;;
14760;SDS011;7472;45.396;5.272;2022-09-09T03:17:14;2.55;;;0.85;;
14760;SDS011;7472;45.396;5.272;2022-09-09T03:19:42;3.45;;;1.30;;
14760;SDS011;7472;45.396;5.272;2022-09-09T03:22:10;2.67;;;1.10;;
14760;SDS011;7472;45.396;5.272;2022-09-09T03:24:40;5.00;;;1.10;;
14760;SDS011;7472;45.396;5.272;2022-09-09T03:27:07;2.75;;;1.00;;
14760;SDS011;7472;45.396;5.272;2022-09-09T03:29:34;3.03;;;1.00;;
14760;SDS011;7472;45.396;5.272;2022-09-09T03:32:02;2.00;;;1.13;;
14760;SDS011;7472;45.396;5.272;2022-09-09T03:34:29;2.50;;;1.10;;
14760;SDS011;7472;45.396;5.272;2022-09-09T03:36:57;7.15;;;1.35;;
14760;SDS011;7472;45.396;5.272;2022-09-09T03:39:24;2.97;;;1.30;;
14760;SDS011;7472;45.396;5.272;2022-09-09T03:41:53;4.60;;;1.35;;
14760;SDS011;7472;45.396;5.272;2022-09-09T03:44:20;3.70;;;1.10;;
14760;SDS011;7472;45.396;5.272;2022-09-09T03:46:47;3.50;;;1.20;;
14760;SDS011;7472;45.396;5.272;2022-09-09T03:49:15;3.53;;;1.17;;
14760;SDS011;7472;45.396;5.272;2022-09-09T03:51:43;1.67;;;1.00;;
14760;SDS011;7472;45.396;5.272;2022-09-09T03:54:10;3.53;;;1.20;;
14760;SDS011;7472;45.396;5.272;2022-09-09T03:56:37;4.20;;;1.30;;
14760;SDS011;7472;45.396;5.272;2022-09-09T03:59:08;7.53;;;1.60;;
14760;SDS011;7472;45.396;5.272;2022-09-09T04:01:35;3.03;;;1.92;;
14760;SDS011;7472;45.396;5.272;2022-09-09T04:04:02;3.22;;;1.40;;
14760;SDS011;7472;45.396;5.272;2022-09-09T04:06:30;5.20;;;1.33;;
14760;SDS011;7472;45.396;5.272;2022-09-09T04:08:57;3.92;;;1.58;;
14760;SDS011;7472;45.396;5.272;2022-09-09T04:11:27;3.97;;;1.45;;
14760;SDS011;7472;45.396;5.272;2022-09-09T04:13:54;2.60;;;1.33;;
14760;SDS011;7472;45.396;5.272;2022-09-09T04:16:23;6.45;;;1.30;;
14760;SDS011;7472;45.396;5.272;2022-09-09T04:18:51;3.67;;;1.17;;
14760;SDS011;7472;45.396;5.272;2022-09-09T04:21:18;3.60;;;1.38;;
14760;SDS011;7472;45.396;5.272;2022-09-09T04:23:46;5.45;;;1.60;;
14760;SDS011;7472;45.396;5.272;2022-09-09T04:26:13;4.75;;;1.58;;
14760;SDS011;7472;45.396;5.272;2022-09-09T04:28:41;4.03;;;1.45;;
14760;SDS011;7472;45.396;5.272;2022-09-09T04:31:09;2.58;;;1.48;;
14760;SDS011;7472;45.396;5.272;2022-09-09T04:33:38;2.88;;;1.40;;
14760;SDS011;7472;45.396;5.272;2022-09-09T04:36:06;4.60;;;1.38;;
14760;SDS011;7472;45.396;5.272;2022-09-09T04:38:33;8.23;;;1.80;;
14760;SDS011;7472;45.396;5.272;2022-09-09T04:41:01;1.70;;;1.10;;
14760;SDS011;7472;45.396;5.272;2022-09-09T04:43:28;5.25;;;1.30;;
14760;SDS011;7472;45.396;5.272;2022-09-09T04:45:56;5.07;;;1.10;;
14760;SDS011;7472;45.396;5.272;2022-09-09T04:48:24;2.25;;;1.25;;
14760;SDS011;7472;45.396;5.272;2022-09-09T04:50:57;2.58;;;1.30;;
14760;SDS011;7472;45.396;5.272;2022-09-09T04:53:25;5.60;;;1.30;;
14760;SDS011;7472;45.396;5.272;2022-09-09T04:55:53;3.28;;;1.63;;
14760;SDS011;7472;45.396;5.272;2022-09-09T04:58:27;6.22;;;2.25;;
14760;SDS011;7472;45.396;5.272;2022-09-09T05:00:55;4.43;;;1.35;;
14760;SDS011;7472;45.396;5.272;2022-09-09T05:03:22;5.03;;;1.38;;
14760;SDS011;7472;45.396;5.272;2022-09-09T05:05:49;2.97;;;1.65;;
14760;SDS011;7472;45.396;5.272;2022-09-09T05:08:18;2.85;;;1.10;;
14760;SDS011;7472;45.396;5.272;2022-09-09T05:10:46;7.65;;;1.35;;
14760;SDS011;7472;45.396;5.272;2022-09-09T05:13:13;3.67;;;1.67;;
14760;SDS011;7472;45.396;5.272;2022-09-09T05:15:40;2.70;;;1.40;;
14760;SDS011;7472;45.396;5.272;2022-09-09T05:18:08;5.13;;;1.65;;
14760;SDS011;7472;45.396;5.272;2022-09-09T05:20:35;3.80;;;1.33;;
14760;SDS011;7472;45.396;5.272;2022-09-09T05:23:03;3.20;;;1.30;;
14760;SDS011;7472;45.396;5.272;2022-09-09T05:25:32;3.55;;;1.27;;
14760;SDS011;7472;45.396;5.272;2022-09-09T05:27:59;3.30;;;1.60;;
14760;SDS011;7472;45.396;5.272;2022-09-09T05:30:26;3.95;;;1.25;;
14760;SDS011;7472;45.396;5.272;2022-09-09T05:32:55;5.32;;;1.50;;
14760;SDS011;7472;45.396;5.272;2022-09-09T05:35:22;5.15;;;1.42;;
14760;SDS011;7472;45.396;5.272;2022-09-09T05:37:50;4.28;;;1.45;;
14760;SDS011;7472;45.396;5.272;2022-09-09T05:40:17;2.33;;;1.20;;
14760;SDS011;7472;45.396;5.272;2022-09-09T05:42:47;2.17;;;1.33;;
14760;SDS011;7472;45.396;5.272;2022-09-09T05:45:15;2.83;;;1.63;;
14760;SDS011;7472;45.396;5.272;2022-09-09T05:47:42;3.78;;;1.67;;
14760;SDS011;7472;45.396;5.272;2022-09-09T05:50:10;6.03;;;1.50;;
14760;SDS011;7472;45.396;5.272;2022-09-09T05:52:39;2.55;;;1.35;;
14760;SDS011;7472;45.396;5.272;2022-09-09T05:55:07;3.53;;;1.58;;
14760;SDS011;7472;45.396;5.272;2022-09-09T05:57:34;1.30;;;1.10;;
14760;SDS011;7472;45.396;5.272;2022-09-09T06:00:03;4.05;;;1.60;;
14760;SDS011;7472;45.396;5.272;2022-09-09T06:02:31;4.72;;;1.58;;
14760;SDS011;7472;45.396;5.272;2022-09-09T06:04:58;3.95;;;1.10;;
14760;SDS011;7472;45.396;5.272;2022-09-09T06:07:26;2.20;;;1.30;;
14760;SDS011;7472;45.396;5.272;2022-09-09T06:09:53;2.78;;;1.10;;
14760;SDS011;7472;45.396;5.272;2022-09-09T06:12:20;2.85;;;1.10;;
14760;SDS011;7472;45.396;5.272;2022-09-09T06:14:48;3.45;;;1.30;;
14760;SDS011;7472;45.396;5.272;2022-09-09T06:17:17;4.05;;;1.45;;
14760;SDS011;7472;45.396;5.272;2022-09-09T06:19:44;7.72;;;1.33;;
14760;SDS011;7472;45.396;5.272;2022-09-09T06:22:12;4.00;;;1.02;;
14760;SDS011;7472;45.396;5.272;2022-09-09T06:24:39;4.80;;;1.52;;
14760;SDS011;7472;45.396;5.272;2022-09-09T06:27:06;2.92;;;1.13;;
14760;SDS011;7472;45.396;5.272;2022-09-09T06:29:34;2.50;;;0.88;;
14760;SDS011;7472;45.396;5.272;2022-09-09T06:32:01;4.57;;;1.27;;
14760;SDS011;7472;45.396;5.272;2022-09-09T06:34:30;3.53;;;2.05;;
14760;SDS011;7472;45.396;5.272;2022-09-09T06:36:57;2.08;;;1.20;;
14760;SDS011;7472;45.396;5.272;2022-09-09T06:39:25;7.03;;;1.42;;
14760;SDS011;7472;45.396;5.272;2022-09-09T06:41:52;4.38;;;1.67;;
14760;SDS011;7472;45.396;5.272;2022-09-09T06:44:20;9.70;;;1.58;;
14760;SDS011;7472;45.396;5.272;2022-09-09T06:46:48;8.00;;;2.00;;
14760;SDS011;7472;45.396;5.272;2022-09-09T06:49:15;3.38;;;1.55;;
14760;SDS011;7472;45.396;5.272;2022-09-09T06:51:44;3.47;;;1.75;;
14760;SDS011;7472;45.396;5.272;2022-09-09T06:54:11;1.40;;;1.30;;
14760;SDS011;7472;45.396;5.272;2022-09-09T06:56:39;5.22;;;1.63;;
14760;SDS011;7472;45.396;5.272;2022-09-09T06:59:07;6.40;;;1.50;;
14760;SDS011;7472;45.396;5.272;2022-09-09T07:01:35;5.68;;;1.33;;
14760;SDS011;7472;45.396;5.272;2022-09-09T07:04:03;4.97;;;1.50;;
14760;SDS011;7472;45.396;5.272;2022-09-09T07:06:34;4.63;;;1.40;;
14760;SDS011;7472;45.396;5.272;2022-09-09T07:09:04;4.93;;;1.45;;
14760;SDS011;7472;45.396;5.272;2022-09-09T07:11:33;3.60;;;1.60;;
14760;SDS011;7472;45.396;5.272;2022-09-09T07:14:00;2.60;;;1.10;;
14760;SDS011;7472;45.396;5.272;2022-09-09T07:16:28;6.57;;;1.42;;
14760;SDS011;7472;45.396;5.272;2022-09-09T07:18:56;4.10;;;1.60;;
14760;SDS011;7472;45.396;5.272;2022-09-09T07:21:25;1.75;;;1.25;;
14760;SDS011;7472;45.396;5.272;2022-09-09T07:23:53;6.47;;;1.52;;
14760;SDS011;7472;45.396;5.272;2022-09-09T07:26:23;4.60;;;1.50;;
14760;SDS011;7472;45.396;5.272;2022-09-09T07:28:50;2.70;;;1.40;;
14760;SDS011;7472;45.396;5.272;2022-09-09T07:31:19;4.82;;;1.60;;
14760;SDS011;7472;45.396;5.272;2022-09-09T07:33:47;3.22;;;1.00;;
14760;SDS011;7472;45.396;5.272;2022-09-09T07:36:15;3.20;;;1.10;;
14760;SDS011;7472;45.396;5.272;2022-09-09T07:38:43;2.88;;;1.20;;
14760;SDS011;7472;45.396;5.272;2022-09-09T07:41:11;6.88;;;1.30;;
14760;SDS011;7472;45.396;5.272;2022-09-09T07:43:40;4.72;;;1.42;;
14760;SDS011;7472;45.396;5.272;2022-09-09T07:46:08;7.50;;;1.73;;
14760;SDS011;7472;45.396;5.272;2022-09-09T07:48:37;4.72;;;1.30;;
14760;SDS011;7472;45.396;5.272;2022-09-09T07:51:05;5.28;;;1.23;;
14760;SDS011;7472;45.396;5.272;2022-09-09T07:53:33;3.03;;;0.77;;
14760;SDS011;7472;45.396;5.272;2022-09-09T07:56:04;2.83;;;1.15;;
14760;SDS011;7472;45.396;5.272;2022-09-09T07:58:31;2.47;;;1.20;;
14760;SDS011;7472;45.396;5.272;2022-09-09T08:01:00;2.25;;;0.90;;
14760;SDS011;7472;45.396;5.272;2022-09-09T08:03:27;2.75;;;0.73;;
14760;SDS011;7472;45.396;5.272;2022-09-09T08:05:59;3.40;;;1.30;;
14760;SDS011;7472;45.396;5.272;2022-09-09T08:08:27;3.75;;;1.10;;
14760;SDS011;7472;45.396;5.272;2022-09-09T08:11:00;2.13;;;0.82;;
14760;SDS011;7472;45.396;5.272;2022-09-09T08:13:28;3.22;;;0.73;;
14760;SDS011;7472;45.396;5.272;2022-09-09T08:16:04;4.20;;;0.90;;
14760;SDS011;7472;45.396;5.272;2022-09-09T08:18:32;5.28;;;0.93;;
14760;SDS011;7472;45.396;5.272;2022-09-09T08:21:04;4.03;;;1.10;;
14760;SDS011;7472;45.396;5.272;2022-09-09T08:23:31;4.57;;;1.00;;
14760;SDS011;7472;45.396;5.272;2022-09-09T08:26:03;1.20;;;0.70;;
14760;SDS011;7472;45.396;5.272;2022-09-09T08:28:30;2.00;;;0.60;;
14760;SDS011;7472;45.396;5.272;2022-09-09T08:31:05;1.55;;;0.75;;
14760;SDS011;7472;45.396;5.272;2022-09-09T08:33:33;1.40;;;0.93;;
14760;SDS011;7472;45.396;5.272;2022-09-09T08:36:02;2.67;;;1.10;;
14760;SDS011;7472;45.396;5.272;2022-09-09T08:38:29;2.25;;;0.93;;
14760;SDS011;7472;45.396;5.272;2022-09-09T08:40:59;1.88;;;0.73;;
14760;SDS011;7472;45.396;5.272;2022-09-09T08:43:28;2.15;;;0.90;;
14760;SDS011;7472;45.396;5.272;2022-09-09T08:45:57;3.85;;;1.17;;
14760;SDS011;7472;45.396;5.272;2022-09-09T08:48:36;1.90;;;0.60;;
14760;SDS011;7472;45.396;5.272;2022-09-09T08:51:07;3.15;;;0.88;;
14760;SDS011;7472;45.396;5.272;2022-09-09T08:53:36;2.85;;;0.80;;
14760;SDS011;7472;45.396;5.272;2022-09-09T08:56:08;1.83;;;0.60;;
14760;SDS011;7472;45.396;5.272;2022-09-09T08:58:40;1.75;;;0.80;;
14760;SDS011;7472;45.396;5.272;2022-09-09T09:01:16;3.80;;;0.90;;
14760;SDS011;7472;45.396;5.272;2022-09-09T09:03:51;1.40;;;0.68;;
14760;SDS011;7472;45.396;5.272;2022-09-09T09:06:26;6.38;;;1.27;;
14760;SDS011;7472;45.396;5.272;2022-09-09T09:08:56;2.90;;;0.68;;
14760;SDS011;7472;45.396;5.272;2022-09-09T09:11:26;6.72;;;0.95;;
14760;SDS011;7472;45.396;5.272;2022-09-09T09:13:54;4.25;;;1.25;;
14760;SDS011;7472;45.396;5.272;2022-09-09T09:16:23;6.05;;;0.98;;
14760;SDS011;7472;45.396;5.272;2022-09-09T09:18:55;2.28;;;0.80;;
14760;SDS011;7472;45.396;5.272;2022-09-09T09:21:25;3.53;;;0.70;;
14760;SDS011;7472;45.396;5.272;2022-09-09T09:23:56;4.85;;;1.20;;
14760;SDS011;7472;45.396;5.272;2022-09-09T09:26:25;1.13;;;0.60;;
14760;SDS011;7472;45.396;5.272;2022-09-09T09:28:57;2.72;;;1.00;;
14760;SDS011;7472;45.396;5.272;2022-09-09T09:31:25;4.22;;;1.20;;
14760;SDS011;7472;45.396;5.272;2022-09-09T09:33:55;4.03;;;0.95;;
14760;SDS011;7472;45.396;5.272;2022-09-09T09:36:25;5.15;;;0.80;;
14760;SDS011;7472;45.396;5.272;2022-09-09T09:39:00;2.05;;;0.90;;
14760;SDS011;7472;45.396;5.272;2022-09-09T09:41:33;3.67;;;0.80;;
14760;SDS011;7472;45.396;5.272;2022-09-09T09:44:01;1.95;;;0.73;;
14760;SDS011;7472;45.396;5.272;2022-09-09T09:46:29;2.85;;;1.02;;
14760;SDS011;7472;45.396;5.272;2022-09-09T09:48:58;2.90;;;1.20;;
14760;SDS011;7472;45.396;5.272;2022-09-09T09:51:26;4.72;;;0.90;;
14760;SDS011;7472;45.396;5.272;2022-09-09T09:54:02;2.85;;;0.90;;
14760;SDS011;7472;45.396;5.272;2022-09-09T09:56:30;2.67;;;1.00;;
14760;SDS011;7472;45.396;5.272;2022-09-09T09:58:58;4.40;;;0.82;;
14760;SDS011;7472;45.396;5.272;2022-09-09T10:01:26;2.28;;;0.80;;
14760;SDS011;7472;45.396;5.272;2022-09-09T10:03:56;1.33;;;0.45;;
14760;SDS011;7472;45.396;5.272;2022-09-09T10:06:32;1.13;;;0.50;;
14760;SDS011;7472;45.396;5.272;2022-09-09T10:09:00;1.48;;;0.80;;
14760;SDS011;7472;45.396;5.272;2022-09-09T10:11:36;2.95;;;0.82;;
14760;SDS011;7472;45.396;5.272;2022-09-09T10:14:10;2.15;;;0.90;;
14760;SDS011;7472;45.396;5.272;2022-09-09T10:16:46;2.58;;;0.93;;
14760;SDS011;7472;45.396;5.272;2022-09-09T10:19:20;1.75;;;0.57;;
14760;SDS011;7472;45.396;5.272;2022-09-09T10:21:58;1.63;;;0.88;;
14760;SDS011;7472;45.396;5.272;2022-09-09T10:24:36;2.83;;;0.73;;
14760;SDS011;7472;45.396;5.272;2022-09-09T10:27:05;2.47;;;0.60;;
14760;SDS011;7472;45.396;5.272;2022-09-09T10:29:44;1.23;;;0.70;;
14760;SDS011;7472;45.396;5.272;2022-09-09T10:35:01;3.15;;;1.05;;
14760;SDS011;7472;45.396;5.272;2022-09-09T10:37:38;6.00;;;0.90;;
14760;SDS011;7472;45.396;5.272;2022-09-09T10:40:15;0.80;;;0.57;;
14760;SDS011;7472;45.396;5.272;2022-09-09T10:42:49;2.30;;;0.85;;
14760;SDS011;7472;45.396;5.272;2022-09-09T10:45:17;2.63;;;0.70;;
14760;SDS011;7472;45.396;5.272;2022-09-09T10:50:40;2.05;;;0.68;;
14760;SDS011;7472;45.396;5.272;2022-09-09T10:53:11;2.25;;;0.80;;
14760;SDS011;7472;45.396;5.272;2022-09-09T10:55:42;2.22;;;0.60;;
14760;SDS011;7472;45.396;5.272;2022-09-09T10:58:10;1.33;;;0.82;;
14760;SDS011;7472;45.396;5.272;2022-09-09T11:00:40;1.38;;;0.55;;
14760;SDS011;7472;45.396;5.272;2022-09-09T11:03:12;1.42;;;0.60;;
14760;SDS011;7472;45.396;5.272;2022-09-09T11:05:42;1.73;;;0.50;;
14760;SDS011;7472;45.396;5.272;2022-09-09T11:08:13;1.33;;;0.60;;
14760;SDS011;7472;45.396;5.272;2022-09-09T11:10:43;2.25;;;0.60;;
14760;SDS011;7472;45.396;5.272;2022-09-09T11:13:14;2.47;;;0.80;;
14760;SDS011;7472;45.396;5.272;2022-09-09T11:15:43;2.63;;;0.77;;
14760;SDS011;7472;45.396;5.272;2022-09-09T11:18:13;1.77;;;0.70;;
14760;SDS011;7472;45.396;5.272;2022-09-09T11:20:42;2.28;;;0.52;;
14760;SDS011;7472;45.396;5.272;2022-09-09T11:23:13;1.55;;;0.80;;
14760;SDS011;7472;45.396;5.272;2022-09-09T11:25:41;1.75;;;0.65;;
14760;SDS011;7472;45.396;5.272;2022-09-09T11:28:21;1.90;;;0.77;;
14760;SDS011;7472;45.396;5.272;2022-09-09T11:30:55;1.13;;;0.50;;
14760;SDS011;7472;45.396;5.272;2022-09-09T11:33:30;1.55;;;0.55;;
14760;SDS011;7472;45.396;5.272;2022-09-09T11:36:13;1.10;;;0.60;;
14760;SDS011;7472;45.396;5.272;2022-09-09T11:38:46;1.17;;;0.55;;
14760;SDS011;7472;45.396;5.272;2022-09-09T11:41:16;2.15;;;0.65;;
14760;SDS011;7472;45.396;5.272;2022-09-09T11:43:44;1.45;;;0.60;;
14760;SDS011;7472;45.396;5.272;2022-09-09T11:46:12;2.25;;;0.80;;
14760;SDS011;7472;45.396;5.272;2022-09-09T11:48:41;2.25;;;0.77;;
14760;SDS011;7472;45.396;5.272;2022-09-09T11:51:11;1.95;;;0.55;;
14760;SDS011;7472;45.396;5.272;2022-09-09T11:53:50;1.05;;;0.50;;
14760;SDS011;7472;45.396;5.272;2022-09-09T11:56:28;1.80;;;0.40;;
14760;SDS011;7472;45.396;5.272;2022-09-09T11:58:57;4.20;;;0.60;;
14760;SDS011;7472;45.396;5.272;2022-09-09T12:01:38;1.05;;;0.40;;
14760;SDS011;7472;45.396;5.272;2022-09-09T12:04:12;1.88;;;0.50;;
14760;SDS011;7472;45.396;5.272;2022-09-09T12:06:44;2.45;;;0.60;;
14760;SDS011;7472;45.396;5.272;2022-09-09T12:09:17;1.80;;;0.65;;
14760;SDS011;7472;45.396;5.272;2022-09-09T12:11:45;1.13;;;0.40;;
14760;SDS011;7472;45.396;5.272;2022-09-09T12:14:19;2.17;;;0.57;;
14760;SDS011;7472;45.396;5.272;2022-09-09T12:16:47;2.25;;;0.65;;
14760;SDS011;7472;45.396;5.272;2022-09-09T12:19:22;0.85;;;0.52;;
14760;SDS011;7472;45.396;5.272;2022-09-09T12:21:51;1.10;;;0.70;;
14760;SDS011;7472;45.396;5.272;2022-09-09T12:24:24;1.42;;;0.50;;
14760;SDS011;7472;45.396;5.272;2022-09-09T12:26:55;2.33;;;0.50;;
14760;SDS011;7472;45.396;5.272;2022-09-09T12:29:26;1.23;;;0.60;;
14760;SDS011;7472;45.396;5.272;2022-09-09T12:31:56;2.83;;;0.60;;
14760;SDS011;7472;45.396;5.272;2022-09-09T12:34:33;0.95;;;0.60;;
14760;SDS011;7472;45.396;5.272;2022-09-09T12:37:03;1.55;;;0.50;;
14760;SDS011;7472;45.396;5.272;2022-09-09T12:39:33;2.25;;;0.57;;
14760;SDS011;7472;45.396;5.272;2022-09-09T12:42:01;1.75;;;0.50;;
14760;SDS011;7472;45.396;5.272;2022-09-09T12:44:29;2.67;;;0.63;;
14760;SDS011;7472;45.396;5.272;2022-09-09T12:46:58;1.48;;;0.60;;
14760;SDS011;7472;45.396;5.272;2022-09-09T12:49:28;1.23;;;0.52;;
14760;SDS011;7472;45.396;5.272;2022-09-09T12:52:00;3.92;;;0.60;;
14760;SDS011;7472;45.396;5.272;2022-09-09T12:54:28;1.60;;;0.40;;
14760;SDS011;7472;45.396;5.272;2022-09-09T12:56:57;1.75;;;0.57;;
14760;SDS011;7472;45.396;5.272;2022-09-09T12:59:25;3.33;;;0.93;;
14760;SDS011;7472;45.396;5.272;2022-09-09T13:01:56;1.92;;;0.50;;
14760;SDS011;7472;45.396;5.272;2022-09-09T13:04:24;2.42;;;0.40;;
14760;SDS011;7472;45.396;5.272;2022-09-09T13:06:51;4.50;;;0.80;;
14760;SDS011;7472;45.396;5.272;2022-09-09T13:09:18;1.38;;;0.40;;
14760;SDS011;7472;45.396;5.272;2022-09-09T13:11:46;1.55;;;0.57;;
14760;SDS011;7472;45.396;5.272;2022-09-09T13:14:16;1.02;;;0.50;;
14760;SDS011;7472;45.396;5.272;2022-09-09T13:16:54;2.83;;;0.50;;
14760;SDS011;7472;45.396;5.272;2022-09-09T13:19:21;1.42;;;0.57;;
14760;SDS011;7472;45.396;5.272;2022-09-09T13:21:50;2.22;;;0.70;;
14760;SDS011;7472;45.396;5.272;2022-09-09T13:24:25;0.80;;;0.30;;
14760;SDS011;7472;45.396;5.272;2022-09-09T13:26:54;0.88;;;0.40;;
14760;SDS011;7472;45.396;5.272;2022-09-09T13:29:24;2.50;;;0.50;;
14760;SDS011;7472;45.396;5.272;2022-09-09T13:31:51;1.33;;;0.60;;
14760;SDS011;7472;45.396;5.272;2022-09-09T13:34:26;5.30;;;0.98;;
14760;SDS011;7472;45.396;5.272;2022-09-09T13:36:54;1.10;;;0.40;;
14760;SDS011;7472;45.396;5.272;2022-09-09T13:39:26;2.97;;;0.60;;
14760;SDS011;7472;45.396;5.272;2022-09-09T13:41:53;2.55;;;0.38;;
14760;SDS011;7472;45.396;5.272;2022-09-09T13:44:24;5.15;;;0.73;;
14760;SDS011;7472;45.396;5.272;2022-09-09T13:47:02;1.52;;;0.50;;
14760;SDS011;7472;45.396;5.272;2022-09-09T13:49:30;1.23;;;0.45;;
14760;SDS011;7472;45.396;5.272;2022-09-09T13:52:05;2.47;;;0.70;;
14760;SDS011;7472;45.396;5.272;2022-09-09T13:54:36;1.05;;;0.60;;
14760;SDS011;7472;45.396;5.272;2022-09-09T13:57:03;2.13;;;0.68;;
14760;SDS011;7472;45.396;5.272;2022-09-09T13:59:32;3.10;;;0.82;;
14760;SDS011;7472;45.396;5.272;2022-09-09T14:01:59;1.23;;;0.40;;
14760;SDS011;7472;45.396;5.272;2022-09-09T14:04:27;0.80;;;0.50;;
14760;SDS011;7472;45.396;5.272;2022-09-09T14:06:55;2.17;;;0.60;;
14760;SDS011;7472;45.396;5.272;2022-09-09T14:09:23;2.03;;;0.68;;
14760;SDS011;7472;45.396;5.272;2022-09-09T14:11:50;2.28;;;0.50;;
14760;SDS011;7472;45.396;5.272;2022-09-09T14:14:18;3.63;;;0.50;;
14760;SDS011;7472;45.396;5.272;2022-09-09T14:16:46;2.88;;;0.65;;
14760;SDS011;7472;45.396;5.272;2022-09-09T14:19:14;2.47;;;0.60;;
14760;SDS011;7472;45.396;5.272;2022-09-09T14:21:41;3.08;;;0.70;;
14760;SDS011;7472;45.396;5.272;2022-09-09T14:24:09;1.08;;;0.50;;
14760;SDS011;7472;45.396;5.272;2022-09-09T14:26:37;1.80;;;0.60;;
14760;SDS011;7472;45.396;5.272;2022-09-09T14:29:05;2.38;;;0.80;;
14760;SDS011;7472;45.396;5.272;2022-09-09T14:31:33;1.95;;;0.50;;
14760;SDS011;7472;45.396;5.272;2022-09-09T14:34:02;2.40;;;0.75;;
14760;SDS011;7472;45.396;5.272;2022-09-09T14:36:29;0.98;;;0.50;;
14760;SDS011;7472;45.396;5.272;2022-09-09T14:38:56;1.20;;;0.43;;
14760;SDS011;7472;45.396;5.272;2022-09-09T14:41:24;2.05;;;0.50;;
14760;SDS011;7472;45.396;5.272;2022-09-09T14:43:51;1.65;;;0.63;;
14760;SDS011;7472;45.396;5.272;2022-09-09T14:46:21;1.88;;;0.82;;
14760;SDS011;7472;45.396;5.272;2022-09-09T14:48:48;1.85;;;0.60;;
14760;SDS011;7472;45.396;5.272;2022-09-09T14:51:18;2.78;;;0.60;;
14760;SDS011;7472;45.396;5.272;2022-09-09T14:53:47;2.20;;;0.90;;
14760;SDS011;7472;45.396;5.272;2022-09-09T14:56:15;1.50;;;0.40;;
14760;SDS011;7472;45.396;5.272;2022-09-09T14:58:43;1.73;;;0.65;;
14760;SDS011;7472;45.396;5.272;2022-09-09T15:01:12;2.40;;;0.40;;
14760;SDS011;7472;45.396;5.272;2022-09-09T15:03:39;4.20;;;2.72;;
14760;SDS011;7472;45.396;5.272;2022-09-09T15:06:09;3.83;;;1.90;;
14760;SDS011;7472;45.396;5.272;2022-09-09T15:08:39;4.20;;;1.02;;
14760;SDS011;7472;45.396;5.272;2022-09-09T15:11:07;1.92;;;0.43;;
14760;SDS011;7472;45.396;5.272;2022-09-09T15:13:35;1.75;;;0.50;;
14760;SDS011;7472;45.396;5.272;2022-09-09T15:16:03;1.88;;;0.70;;
14760;SDS011;7472;45.396;5.272;2022-09-09T15:18:31;2.45;;;0.52;;
14760;SDS011;7472;45.396;5.272;2022-09-09T15:20:59;1.95;;;0.50;;
14760;SDS011;7472;45.396;5.272;2022-09-09T15:23:28;1.55;;;0.50;;